sensor_id;sensor_type;location;lat;lon;timestamp;P1;durP1;ratioP1;P2;durP2;ratioP2
20423;SDS011;10371;49.042;8.002;2023-04-15T00:00:32;1.70;;;1.40;;
20423;SDS011;10371;49.042;8.002;2023-04-15T00:01:33;1.70;;;1.60;;
20423;SDS011;10371;49.042;8.002;2023-04-15T00:02:36;2.77;;;1.67;;
20423;SDS011;10371;49.042;8.002;2023-04-15T00:03:36;2.47;;;1.70;;
20423;SDS011;10371;49.042;8.002;2023-04-15T00:04:36;1.60;;;1.40;;
20423;SDS011;10371;49.042;8.002;2023-04-15T00:05:37;1.67;;;1.30;;
20423;SDS011;10371;49.042;8.002;2023-04-15T00:06:37;2.77;;;1.60;;
20423;SDS011;10371;49.042;8.002;2023-04-15T00:07:38;1.73;;;1.30;;
20423;SDS011;10371;49.042;8.002;2023-04-15T00:08:39;3.20;;;1.60;;
20423;SDS011;10371;49.042;8.002;2023-04-15T00:09:40;1.90;;;1.40;;
20423;SDS011;10371;49.042;8.002;2023-04-15T00:10:40;2.17;;;1.40;;
20423;SDS011;10371;49.042;8.002;2023-04-15T00:11:43;1.83;;;1.60;;
20423;SDS011;10371;49.042;8.002;2023-04-15T00:12:43;2.60;;;1.60;;
20423;SDS011;10371;49.042;8.002;2023-04-15T00:13:43;2.27;;;1.40;;
20423;SDS011;10371;49.042;8.002;2023-04-15T00:14:44;2.50;;;1.60;;
20423;SDS011;10371;49.042;8.002;2023-04-15T00:15:45;1.73;;;1.60;;
20423;SDS011;10371;49.042;8.002;2023-04-15T00:16:45;2.00;;;1.80;;
20423;SDS011;10371;49.042;8.002;2023-04-15T00:17:45;2.30;;;1.70;;
20423;SDS011;10371;49.042;8.002;2023-04-15T00:18:45;3.47;;;1.70;;
20423;SDS011;10371;49.042;8.002;2023-04-15T00:19:46;1.50;;;1.40;;
20423;SDS011;10371;49.042;8.002;2023-04-15T00:20:46;2.93;;;1.80;;
20423;SDS011;10371;49.042;8.002;2023-04-15T00:21:47;2.13;;;1.80;;
20423;SDS011;10371;49.042;8.002;2023-04-15T00:22:47;3.77;;;1.90;;
20423;SDS011;10371;49.042;8.002;2023-04-15T00:23:47;3.53;;;1.80;;
20423;SDS011;10371;49.042;8.002;2023-04-15T00:24:51;2.03;;;1.67;;
20423;SDS011;10371;49.042;8.002;2023-04-15T00:25:52;2.80;;;1.67;;
20423;SDS011;10371;49.042;8.002;2023-04-15T00:26:53;2.50;;;1.73;;
20423;SDS011;10371;49.042;8.002;2023-04-15T00:27:53;2.87;;;1.70;;
20423;SDS011;10371;49.042;8.002;2023-04-15T00:28:53;3.07;;;2.33;;
20423;SDS011;10371;49.042;8.002;2023-04-15T00:29:54;2.00;;;1.80;;
20423;SDS011;10371;49.042;8.002;2023-04-15T00:30:55;2.43;;;1.87;;
20423;SDS011;10371;49.042;8.002;2023-04-15T00:31:55;2.63;;;1.60;;
20423;SDS011;10371;49.042;8.002;2023-04-15T00:32:56;2.90;;;1.80;;
20423;SDS011;10371;49.042;8.002;2023-04-15T00:33:56;3.30;;;1.90;;
20423;SDS011;10371;49.042;8.002;2023-04-15T00:34:57;2.67;;;1.70;;
20423;SDS011;10371;49.042;8.002;2023-04-15T00:35:57;1.70;;;1.60;;
20423;SDS011;10371;49.042;8.002;2023-04-15T00:36:58;3.30;;;1.80;;
20423;SDS011;10371;49.042;8.002;2023-04-15T00:37:58;3.47;;;1.90;;
20423;SDS011;10371;49.042;8.002;2023-04-15T00:38:59;3.13;;;1.90;;
20423;SDS011;10371;49.042;8.002;2023-04-15T00:39:59;2.47;;;1.90;;
20423;SDS011;10371;49.042;8.002;2023-04-15T00:41:00;2.07;;;1.60;;
20423;SDS011;10371;49.042;8.002;2023-04-15T00:42:05;2.50;;;1.90;;
20423;SDS011;10371;49.042;8.002;2023-04-15T00:43:05;2.47;;;1.70;;
20423;SDS011;10371;49.042;8.002;2023-04-15T00:44:06;2.00;;;1.70;;
20423;SDS011;10371;49.042;8.002;2023-04-15T00:45:06;4.77;;;1.80;;
20423;SDS011;10371;49.042;8.002;2023-04-15T00:46:07;3.40;;;1.93;;
20423;SDS011;10371;49.042;8.002;2023-04-15T00:47:08;3.07;;;1.90;;
20423;SDS011;10371;49.042;8.002;2023-04-15T00:48:10;2.57;;;1.70;;
20423;SDS011;10371;49.042;8.002;2023-04-15T00:49:11;2.90;;;1.60;;
20423;SDS011;10371;49.042;8.002;2023-04-15T00:50:12;2.40;;;1.63;;
20423;SDS011;10371;49.042;8.002;2023-04-15T00:51:12;5.37;;;1.90;;
20423;SDS011;10371;49.042;8.002;2023-04-15T00:52:13;2.87;;;1.77;;
20423;SDS011;10371;49.042;8.002;2023-04-15T00:53:14;2.97;;;1.80;;
20423;SDS011;10371;49.042;8.002;2023-04-15T00:54:14;2.17;;;1.80;;
20423;SDS011;10371;49.042;8.002;2023-04-15T00:55:15;3.23;;;1.90;;
20423;SDS011;10371;49.042;8.002;2023-04-15T00:56:15;4.27;;;1.93;;
20423;SDS011;10371;49.042;8.002;2023-04-15T00:57:15;3.17;;;2.10;;
20423;SDS011;10371;49.042;8.002;2023-04-15T00:58:16;2.23;;;1.90;;
20423;SDS011;10371;49.042;8.002;2023-04-15T00:59:17;2.37;;;1.87;;
20423;SDS011;10371;49.042;8.002;2023-04-15T01:00:17;3.97;;;2.07;;
20423;SDS011;10371;49.042;8.002;2023-04-15T01:01:22;2.83;;;2.00;;
20423;SDS011;10371;49.042;8.002;2023-04-15T01:02:24;1.80;;;1.70;;
20423;SDS011;10371;49.042;8.002;2023-04-15T01:03:24;3.10;;;2.00;;
20423;SDS011;10371;49.042;8.002;2023-04-15T01:04:25;3.67;;;2.00;;
20423;SDS011;10371;49.042;8.002;2023-04-15T01:05:25;4.00;;;2.10;;
20423;SDS011;10371;49.042;8.002;2023-04-15T01:06:26;2.00;;;1.80;;
20423;SDS011;10371;49.042;8.002;2023-04-15T01:07:27;1.63;;;1.47;;
20423;SDS011;10371;49.042;8.002;2023-04-15T01:08:27;4.17;;;1.73;;
20423;SDS011;10371;49.042;8.002;2023-04-15T01:09:28;2.70;;;1.90;;
20423;SDS011;10371;49.042;8.002;2023-04-15T01:10:28;4.70;;;2.30;;
20423;SDS011;10371;49.042;8.002;2023-04-15T01:11:29;2.80;;;1.80;;
20423;SDS011;10371;49.042;8.002;2023-04-15T01:12:33;2.47;;;1.90;;
20423;SDS011;10371;49.042;8.002;2023-04-15T01:13:34;2.97;;;1.97;;
20423;SDS011;10371;49.042;8.002;2023-04-15T01:14:35;3.47;;;1.90;;
20423;SDS011;10371;49.042;8.002;2023-04-15T01:15:35;2.07;;;1.87;;
20423;SDS011;10371;49.042;8.002;2023-04-15T01:16:36;1.97;;;1.73;;
20423;SDS011;10371;49.042;8.002;2023-04-15T01:17:38;2.87;;;1.90;;
20423;SDS011;10371;49.042;8.002;2023-04-15T01:18:40;4.53;;;1.80;;
20423;SDS011;10371;49.042;8.002;2023-04-15T01:19:40;1.90;;;1.70;;
20423;SDS011;10371;49.042;8.002;2023-04-15T01:20:41;2.13;;;1.67;;
20423;SDS011;10371;49.042;8.002;2023-04-15T01:21:41;2.00;;;1.80;;
20423;SDS011;10371;49.042;8.002;2023-04-15T01:22:41;2.47;;;1.80;;
20423;SDS011;10371;49.042;8.002;2023-04-15T01:23:42;4.50;;;2.00;;
20423;SDS011;10371;49.042;8.002;2023-04-15T01:24:48;1.90;;;1.60;;
20423;SDS011;10371;49.042;8.002;2023-04-15T01:25:54;2.17;;;1.73;;
20423;SDS011;10371;49.042;8.002;2023-04-15T01:26:55;2.67;;;1.93;;
20423;SDS011;10371;49.042;8.002;2023-04-15T01:27:55;3.43;;;1.90;;
20423;SDS011;10371;49.042;8.002;2023-04-15T01:28:56;2.10;;;1.90;;
20423;SDS011;10371;49.042;8.002;2023-04-15T01:29:56;3.33;;;1.77;;
20423;SDS011;10371;49.042;8.002;2023-04-15T01:31:10;3.03;;;1.70;;
20423;SDS011;10371;49.042;8.002;2023-04-15T01:32:12;3.57;;;1.90;;
20423;SDS011;10371;49.042;8.002;2023-04-15T01:33:12;2.03;;;1.70;;
20423;SDS011;10371;49.042;8.002;2023-04-15T01:34:13;1.93;;;1.70;;
20423;SDS011;10371;49.042;8.002;2023-04-15T01:35:13;1.90;;;1.60;;
20423;SDS011;10371;49.042;8.002;2023-04-15T01:36:13;2.10;;;1.90;;
20423;SDS011;10371;49.042;8.002;2023-04-15T01:37:13;2.20;;;1.90;;
20423;SDS011;10371;49.042;8.002;2023-04-15T01:38:14;3.07;;;1.67;;
20423;SDS011;10371;49.042;8.002;2023-04-15T01:39:14;2.10;;;1.90;;
20423;SDS011;10371;49.042;8.002;2023-04-15T01:40:14;3.03;;;1.80;;
20423;SDS011;10371;49.042;8.002;2023-04-15T01:41:15;2.07;;;1.87;;
20423;SDS011;10371;49.042;8.002;2023-04-15T01:42:16;2.60;;;1.70;;
20423;SDS011;10371;49.042;8.002;2023-04-15T01:43:16;2.23;;;1.57;;
20423;SDS011;10371;49.042;8.002;2023-04-15T01:44:16;3.13;;;1.80;;
20423;SDS011;10371;49.042;8.002;2023-04-15T01:45:17;2.73;;;1.63;;
20423;SDS011;10371;49.042;8.002;2023-04-15T01:46:17;1.50;;;1.30;;
20423;SDS011;10371;49.042;8.002;2023-04-15T01:47:17;2.27;;;1.70;;
20423;SDS011;10371;49.042;8.002;2023-04-15T01:48:18;1.97;;;1.70;;
20423;SDS011;10371;49.042;8.002;2023-04-15T01:49:18;2.97;;;1.70;;
20423;SDS011;10371;49.042;8.002;2023-04-15T01:50:18;2.40;;;1.80;;
20423;SDS011;10371;49.042;8.002;2023-04-15T01:51:19;1.97;;;1.73;;
20423;SDS011;10371;49.042;8.002;2023-04-15T01:52:20;1.90;;;1.70;;
20423;SDS011;10371;49.042;8.002;2023-04-15T01:53:20;1.80;;;1.63;;
20423;SDS011;10371;49.042;8.002;2023-04-15T01:54:20;2.40;;;1.97;;
20423;SDS011;10371;49.042;8.002;2023-04-15T01:55:20;1.60;;;1.50;;
20423;SDS011;10371;49.042;8.002;2023-04-15T01:56:21;2.43;;;1.60;;
20423;SDS011;10371;49.042;8.002;2023-04-15T01:57:23;1.70;;;1.60;;
20423;SDS011;10371;49.042;8.002;2023-04-15T01:58:23;3.97;;;1.80;;
20423;SDS011;10371;49.042;8.002;2023-04-15T01:59:23;1.80;;;1.70;;
20423;SDS011;10371;49.042;8.002;2023-04-15T02:00:24;2.90;;;1.50;;
20423;SDS011;10371;49.042;8.002;2023-04-15T02:01:24;2.60;;;1.80;;
20423;SDS011;10371;49.042;8.002;2023-04-15T02:02:25;2.57;;;1.77;;
20423;SDS011;10371;49.042;8.002;2023-04-15T02:03:25;3.27;;;1.87;;
20423;SDS011;10371;49.042;8.002;2023-04-15T02:04:26;2.13;;;1.70;;
20423;SDS011;10371;49.042;8.002;2023-04-15T02:05:26;2.47;;;1.70;;
20423;SDS011;10371;49.042;8.002;2023-04-15T02:06:27;3.97;;;2.10;;
20423;SDS011;10371;49.042;8.002;2023-04-15T02:07:27;2.37;;;1.80;;
20423;SDS011;10371;49.042;8.002;2023-04-15T02:08:31;2.47;;;1.80;;
20423;SDS011;10371;49.042;8.002;2023-04-15T02:09:31;4.17;;;1.90;;
20423;SDS011;10371;49.042;8.002;2023-04-15T02:10:32;2.70;;;1.70;;
20423;SDS011;10371;49.042;8.002;2023-04-15T02:11:32;3.03;;;1.70;;
20423;SDS011;10371;49.042;8.002;2023-04-15T02:12:34;1.87;;;1.77;;
20423;SDS011;10371;49.042;8.002;2023-04-15T02:13:34;3.30;;;1.83;;
20423;SDS011;10371;49.042;8.002;2023-04-15T02:14:35;2.67;;;1.80;;
20423;SDS011;10371;49.042;8.002;2023-04-15T02:15:35;2.57;;;1.80;;
20423;SDS011;10371;49.042;8.002;2023-04-15T02:16:35;1.87;;;1.77;;
20423;SDS011;10371;49.042;8.002;2023-04-15T02:17:35;2.03;;;1.70;;
20423;SDS011;10371;49.042;8.002;2023-04-15T02:18:36;3.97;;;2.20;;
20423;SDS011;10371;49.042;8.002;2023-04-15T02:19:36;2.40;;;1.80;;
20423;SDS011;10371;49.042;8.002;2023-04-15T02:20:38;1.90;;;1.73;;
20423;SDS011;10371;49.042;8.002;2023-04-15T02:21:38;2.10;;;1.77;;
20423;SDS011;10371;49.042;8.002;2023-04-15T02:22:39;2.33;;;1.83;;
20423;SDS011;10371;49.042;8.002;2023-04-15T02:23:39;3.47;;;2.00;;
20423;SDS011;10371;49.042;8.002;2023-04-15T02:24:39;2.47;;;1.87;;
20423;SDS011;10371;49.042;8.002;2023-04-15T02:25:40;3.43;;;2.37;;
20423;SDS011;10371;49.042;8.002;2023-04-15T02:26:40;2.20;;;1.87;;
20423;SDS011;10371;49.042;8.002;2023-04-15T02:27:40;3.13;;;1.93;;
20423;SDS011;10371;49.042;8.002;2023-04-15T02:28:40;3.40;;;2.00;;
20423;SDS011;10371;49.042;8.002;2023-04-15T02:29:41;1.73;;;1.60;;
20423;SDS011;10371;49.042;8.002;2023-04-15T02:30:42;3.80;;;2.30;;
20423;SDS011;10371;49.042;8.002;2023-04-15T02:31:42;2.20;;;2.00;;
20423;SDS011;10371;49.042;8.002;2023-04-15T02:32:43;2.10;;;1.80;;
20423;SDS011;10371;49.042;8.002;2023-04-15T02:33:44;2.67;;;1.90;;
20423;SDS011;10371;49.042;8.002;2023-04-15T02:34:44;2.27;;;1.77;;
20423;SDS011;10371;49.042;8.002;2023-04-15T02:35:45;2.93;;;2.07;;
20423;SDS011;10371;49.042;8.002;2023-04-15T02:36:45;3.73;;;1.83;;
20423;SDS011;10371;49.042;8.002;2023-04-15T02:37:47;3.43;;;2.00;;
20423;SDS011;10371;49.042;8.002;2023-04-15T02:38:47;3.80;;;2.00;;
20423;SDS011;10371;49.042;8.002;2023-04-15T02:39:48;3.27;;;2.10;;
20423;SDS011;10371;49.042;8.002;2023-04-15T02:40:48;2.60;;;1.80;;
20423;SDS011;10371;49.042;8.002;2023-04-15T02:41:49;2.10;;;1.70;;
20423;SDS011;10371;49.042;8.002;2023-04-15T02:42:52;4.33;;;2.07;;
20423;SDS011;10371;49.042;8.002;2023-04-15T02:43:53;2.17;;;1.70;;
20423;SDS011;10371;49.042;8.002;2023-04-15T02:44:53;2.87;;;1.60;;
20423;SDS011;10371;49.042;8.002;2023-04-15T02:45:54;2.57;;;1.60;;
20423;SDS011;10371;49.042;8.002;2023-04-15T02:46:54;2.13;;;1.70;;
20423;SDS011;10371;49.042;8.002;2023-04-15T02:47:54;3.10;;;2.10;;
20423;SDS011;10371;49.042;8.002;2023-04-15T02:48:54;2.20;;;1.90;;
20423;SDS011;10371;49.042;8.002;2023-04-15T02:49:55;2.80;;;1.93;;
20423;SDS011;10371;49.042;8.002;2023-04-15T02:51:10;2.70;;;1.97;;
20423;SDS011;10371;49.042;8.002;2023-04-15T02:52:11;2.93;;;2.03;;
20423;SDS011;10371;49.042;8.002;2023-04-15T02:53:12;3.50;;;2.10;;
20423;SDS011;10371;49.042;8.002;2023-04-15T02:54:14;3.13;;;2.13;;
20423;SDS011;10371;49.042;8.002;2023-04-15T02:55:15;2.00;;;1.77;;
20423;SDS011;10371;49.042;8.002;2023-04-15T02:56:16;3.07;;;1.87;;
20423;SDS011;10371;49.042;8.002;2023-04-15T02:57:18;3.37;;;2.00;;
20423;SDS011;10371;49.042;8.002;2023-04-15T02:58:18;2.93;;;1.83;;
20423;SDS011;10371;49.042;8.002;2023-04-15T02:59:18;2.67;;;1.90;;
20423;SDS011;10371;49.042;8.002;2023-04-15T03:00:19;3.70;;;1.90;;
20423;SDS011;10371;49.042;8.002;2023-04-15T03:01:19;2.27;;;1.80;;
20423;SDS011;10371;49.042;8.002;2023-04-15T03:02:20;1.93;;;1.67;;
20423;SDS011;10371;49.042;8.002;2023-04-15T03:03:20;3.53;;;2.20;;
20423;SDS011;10371;49.042;8.002;2023-04-15T03:04:20;3.13;;;1.80;;
20423;SDS011;10371;49.042;8.002;2023-04-15T03:05:21;4.17;;;2.33;;
20423;SDS011;10371;49.042;8.002;2023-04-15T03:06:24;2.87;;;2.10;;
20423;SDS011;10371;49.042;8.002;2023-04-15T03:07:25;3.37;;;1.97;;
20423;SDS011;10371;49.042;8.002;2023-04-15T03:08:25;3.47;;;2.57;;
20423;SDS011;10371;49.042;8.002;2023-04-15T03:09:25;3.00;;;1.90;;
20423;SDS011;10371;49.042;8.002;2023-04-15T03:10:26;3.33;;;2.50;;
20423;SDS011;10371;49.042;8.002;2023-04-15T03:11:27;3.00;;;2.10;;
20423;SDS011;10371;49.042;8.002;2023-04-15T03:12:28;3.30;;;2.90;;
20423;SDS011;10371;49.042;8.002;2023-04-15T03:13:29;4.50;;;3.10;;
20423;SDS011;10371;49.042;8.002;2023-04-15T03:14:30;4.00;;;2.87;;
20423;SDS011;10371;49.042;8.002;2023-04-15T03:15:31;2.93;;;2.50;;
20423;SDS011;10371;49.042;8.002;2023-04-15T03:16:32;3.93;;;2.67;;
20423;SDS011;10371;49.042;8.002;2023-04-15T03:17:32;5.80;;;3.20;;
20423;SDS011;10371;49.042;8.002;2023-04-15T03:18:32;3.80;;;2.83;;
20423;SDS011;10371;49.042;8.002;2023-04-15T03:19:33;5.30;;;2.60;;
20423;SDS011;10371;49.042;8.002;2023-04-15T03:20:33;4.50;;;2.83;;
20423;SDS011;10371;49.042;8.002;2023-04-15T03:21:34;4.20;;;2.40;;
20423;SDS011;10371;49.042;8.002;2023-04-15T03:22:35;3.80;;;2.10;;
20423;SDS011;10371;49.042;8.002;2023-04-15T03:23:35;3.10;;;2.10;;
20423;SDS011;10371;49.042;8.002;2023-04-15T03:24:35;1.90;;;1.80;;
20423;SDS011;10371;49.042;8.002;2023-04-15T03:25:35;2.43;;;2.07;;
20423;SDS011;10371;49.042;8.002;2023-04-15T03:26:36;3.20;;;2.03;;
20423;SDS011;10371;49.042;8.002;2023-04-15T03:27:37;2.40;;;2.13;;
20423;SDS011;10371;49.042;8.002;2023-04-15T03:28:37;2.10;;;1.90;;
20423;SDS011;10371;49.042;8.002;2023-04-15T03:29:38;2.77;;;2.20;;
20423;SDS011;10371;49.042;8.002;2023-04-15T03:30:38;4.90;;;3.20;;
20423;SDS011;10371;49.042;8.002;2023-04-15T03:31:38;3.53;;;2.60;;
20423;SDS011;10371;49.042;8.002;2023-04-15T03:32:39;4.23;;;3.83;;
20423;SDS011;10371;49.042;8.002;2023-04-15T03:33:39;4.73;;;3.60;;
20423;SDS011;10371;49.042;8.002;2023-04-15T03:34:40;4.83;;;3.13;;
20423;SDS011;10371;49.042;8.002;2023-04-15T03:35:41;3.03;;;2.40;;
20423;SDS011;10371;49.042;8.002;2023-04-15T03:36:41;2.70;;;2.07;;
20423;SDS011;10371;49.042;8.002;2023-04-15T03:37:41;2.43;;;2.20;;
20423;SDS011;10371;49.042;8.002;2023-04-15T03:38:42;2.43;;;2.13;;
20423;SDS011;10371;49.042;8.002;2023-04-15T03:39:42;2.53;;;2.30;;
20423;SDS011;10371;49.042;8.002;2023-04-15T03:40:42;3.63;;;2.30;;
20423;SDS011;10371;49.042;8.002;2023-04-15T03:41:45;2.80;;;2.00;;
20423;SDS011;10371;49.042;8.002;2023-04-15T03:42:45;3.53;;;2.20;;
20423;SDS011;10371;49.042;8.002;2023-04-15T03:43:45;1.83;;;1.73;;
20423;SDS011;10371;49.042;8.002;2023-04-15T03:44:45;3.20;;;2.07;;
20423;SDS011;10371;49.042;8.002;2023-04-15T03:45:46;1.93;;;1.83;;
20423;SDS011;10371;49.042;8.002;2023-04-15T03:46:46;5.77;;;2.30;;
20423;SDS011;10371;49.042;8.002;2023-04-15T03:47:46;3.47;;;2.37;;
20423;SDS011;10371;49.042;8.002;2023-04-15T03:48:48;2.30;;;2.07;;
20423;SDS011;10371;49.042;8.002;2023-04-15T03:49:48;3.37;;;1.90;;
20423;SDS011;10371;49.042;8.002;2023-04-15T03:50:49;2.60;;;1.87;;
20423;SDS011;10371;49.042;8.002;2023-04-15T03:51:49;5.87;;;3.50;;
20423;SDS011;10371;49.042;8.002;2023-04-15T03:52:49;3.70;;;3.37;;
20423;SDS011;10371;49.042;8.002;2023-04-15T03:53:50;3.70;;;3.40;;
20423;SDS011;10371;49.042;8.002;2023-04-15T03:54:50;4.07;;;3.10;;
20423;SDS011;10371;49.042;8.002;2023-04-15T03:55:51;4.23;;;3.40;;
20423;SDS011;10371;49.042;8.002;2023-04-15T03:56:51;3.17;;;2.83;;
20423;SDS011;10371;49.042;8.002;2023-04-15T03:57:51;4.27;;;2.80;;
20423;SDS011;10371;49.042;8.002;2023-04-15T03:58:52;3.43;;;3.00;;
20423;SDS011;10371;49.042;8.002;2023-04-15T03:59:52;3.30;;;2.50;;
20423;SDS011;10371;49.042;8.002;2023-04-15T04:00:52;3.33;;;2.30;;
20423;SDS011;10371;49.042;8.002;2023-04-15T04:01:53;3.87;;;2.20;;
20423;SDS011;10371;49.042;8.002;2023-04-15T04:02:54;3.87;;;2.10;;
20423;SDS011;10371;49.042;8.002;2023-04-15T04:03:54;3.60;;;2.10;;
20423;SDS011;10371;49.042;8.002;2023-04-15T04:04:54;3.03;;;1.97;;
20423;SDS011;10371;49.042;8.002;2023-04-15T04:05:55;2.53;;;1.97;;
20423;SDS011;10371;49.042;8.002;2023-04-15T04:06:55;2.93;;;2.30;;
20423;SDS011;10371;49.042;8.002;2023-04-15T04:07:55;2.93;;;1.93;;
20423;SDS011;10371;49.042;8.002;2023-04-15T04:08:56;3.10;;;2.23;;
20423;SDS011;10371;49.042;8.002;2023-04-15T04:09:56;2.37;;;2.17;;
20423;SDS011;10371;49.042;8.002;2023-04-15T04:10:57;3.30;;;2.63;;
20423;SDS011;10371;49.042;8.002;2023-04-15T04:11:57;4.47;;;3.83;;
20423;SDS011;10371;49.042;8.002;2023-04-15T04:12:57;5.67;;;5.13;;
20423;SDS011;10371;49.042;8.002;2023-04-15T04:13:58;7.17;;;5.23;;
20423;SDS011;10371;49.042;8.002;2023-04-15T04:14:58;6.00;;;5.20;;
20423;SDS011;10371;49.042;8.002;2023-04-15T04:15:58;4.60;;;4.20;;
20423;SDS011;10371;49.042;8.002;2023-04-15T04:16:58;4.33;;;3.90;;
20423;SDS011;10371;49.042;8.002;2023-04-15T04:17:59;4.10;;;3.70;;
20423;SDS011;10371;49.042;8.002;2023-04-15T04:18:59;4.27;;;3.30;;
20423;SDS011;10371;49.042;8.002;2023-04-15T04:20:00;5.03;;;3.20;;
20423;SDS011;10371;49.042;8.002;2023-04-15T04:21:00;3.90;;;3.40;;
20423;SDS011;10371;49.042;8.002;2023-04-15T04:22:00;3.47;;;3.10;;
20423;SDS011;10371;49.042;8.002;2023-04-15T04:23:01;3.90;;;2.90;;
20423;SDS011;10371;49.042;8.002;2023-04-15T04:24:01;3.50;;;3.20;;
20423;SDS011;10371;49.042;8.002;2023-04-15T04:25:01;5.70;;;4.70;;
20423;SDS011;10371;49.042;8.002;2023-04-15T04:26:02;5.00;;;4.50;;
20423;SDS011;10371;49.042;8.002;2023-04-15T04:27:02;5.20;;;3.50;;
20423;SDS011;10371;49.042;8.002;2023-04-15T04:28:02;3.93;;;2.83;;
20423;SDS011;10371;49.042;8.002;2023-04-15T04:29:02;3.70;;;2.57;;
20423;SDS011;10371;49.042;8.002;2023-04-15T04:30:03;2.80;;;2.43;;
20423;SDS011;10371;49.042;8.002;2023-04-15T04:31:06;4.90;;;2.60;;
20423;SDS011;10371;49.042;8.002;2023-04-15T04:32:06;2.87;;;2.20;;
20423;SDS011;10371;49.042;8.002;2023-04-15T04:33:06;2.67;;;1.93;;
20423;SDS011;10371;49.042;8.002;2023-04-15T04:34:06;3.93;;;2.10;;
20423;SDS011;10371;49.042;8.002;2023-04-15T04:35:07;2.47;;;2.27;;
20423;SDS011;10371;49.042;8.002;2023-04-15T04:36:08;2.60;;;2.10;;
20423;SDS011;10371;49.042;8.002;2023-04-15T04:37:08;2.70;;;2.10;;
20423;SDS011;10371;49.042;8.002;2023-04-15T04:38:08;2.13;;;1.93;;
20423;SDS011;10371;49.042;8.002;2023-04-15T04:39:08;2.43;;;1.80;;
20423;SDS011;10371;49.042;8.002;2023-04-15T04:40:09;2.07;;;1.60;;
20423;SDS011;10371;49.042;8.002;2023-04-15T04:41:10;2.10;;;1.90;;
20423;SDS011;10371;49.042;8.002;2023-04-15T04:42:10;3.27;;;2.03;;
20423;SDS011;10371;49.042;8.002;2023-04-15T04:43:10;2.17;;;1.90;;
20423;SDS011;10371;49.042;8.002;2023-04-15T04:44:11;2.20;;;1.80;;
20423;SDS011;10371;49.042;8.002;2023-04-15T04:45:11;3.97;;;2.70;;
20423;SDS011;10371;49.042;8.002;2023-04-15T04:46:12;5.53;;;4.20;;
20423;SDS011;10371;49.042;8.002;2023-04-15T04:47:12;7.00;;;6.40;;
20423;SDS011;10371;49.042;8.002;2023-04-15T04:48:12;7.10;;;5.63;;
20423;SDS011;10371;49.042;8.002;2023-04-15T04:49:13;5.60;;;5.10;;
20423;SDS011;10371;49.042;8.002;2023-04-15T04:50:13;4.77;;;3.47;;
20423;SDS011;10371;49.042;8.002;2023-04-15T04:51:13;4.07;;;2.67;;
20423;SDS011;10371;49.042;8.002;2023-04-15T04:52:14;3.13;;;2.60;;
20423;SDS011;10371;49.042;8.002;2023-04-15T04:53:14;2.33;;;2.07;;
20423;SDS011;10371;49.042;8.002;2023-04-15T04:54:15;2.77;;;1.97;;
20423;SDS011;10371;49.042;8.002;2023-04-15T04:55:15;2.23;;;1.90;;
20423;SDS011;10371;49.042;8.002;2023-04-15T04:56:16;2.20;;;1.93;;
20423;SDS011;10371;49.042;8.002;2023-04-15T04:57:16;2.27;;;2.00;;
20423;SDS011;10371;49.042;8.002;2023-04-15T04:58:16;3.13;;;1.97;;
20423;SDS011;10371;49.042;8.002;2023-04-15T04:59:16;2.93;;;2.10;;
20423;SDS011;10371;49.042;8.002;2023-04-15T05:00:17;2.53;;;2.00;;
20423;SDS011;10371;49.042;8.002;2023-04-15T05:01:18;2.40;;;2.20;;
20423;SDS011;10371;49.042;8.002;2023-04-15T05:02:18;3.63;;;2.00;;
20423;SDS011;10371;49.042;8.002;2023-04-15T05:03:18;3.13;;;2.20;;
20423;SDS011;10371;49.042;8.002;2023-04-15T05:04:19;3.83;;;2.40;;
20423;SDS011;10371;49.042;8.002;2023-04-15T05:05:19;2.90;;;2.07;;
20423;SDS011;10371;49.042;8.002;2023-04-15T05:06:20;2.90;;;2.60;;
20423;SDS011;10371;49.042;8.002;2023-04-15T05:07:20;6.60;;;2.73;;
20423;SDS011;10371;49.042;8.002;2023-04-15T05:08:21;4.37;;;2.83;;
20423;SDS011;10371;49.042;8.002;2023-04-15T05:09:21;4.07;;;2.50;;
20423;SDS011;10371;49.042;8.002;2023-04-15T05:10:21;5.40;;;2.80;;
20423;SDS011;10371;49.042;8.002;2023-04-15T05:11:22;2.63;;;2.37;;
20423;SDS011;10371;49.042;8.002;2023-04-15T05:12:22;2.83;;;2.50;;
20423;SDS011;10371;49.042;8.002;2023-04-15T05:13:22;3.07;;;2.80;;
20423;SDS011;10371;49.042;8.002;2023-04-15T05:14:22;3.63;;;2.87;;
20423;SDS011;10371;49.042;8.002;2023-04-15T05:15:23;2.73;;;2.53;;
20423;SDS011;10371;49.042;8.002;2023-04-15T05:16:23;4.37;;;2.70;;
20423;SDS011;10371;49.042;8.002;2023-04-15T05:17:24;4.03;;;2.67;;
20423;SDS011;10371;49.042;8.002;2023-04-15T05:18:25;3.30;;;3.00;;
20423;SDS011;10371;49.042;8.002;2023-04-15T05:19:25;3.73;;;2.90;;
20423;SDS011;10371;49.042;8.002;2023-04-15T05:20:25;3.57;;;2.90;;
20423;SDS011;10371;49.042;8.002;2023-04-15T05:21:25;4.33;;;2.70;;
20423;SDS011;10371;49.042;8.002;2023-04-15T05:22:26;4.30;;;2.87;;
20423;SDS011;10371;49.042;8.002;2023-04-15T05:23:26;4.43;;;2.93;;
20423;SDS011;10371;49.042;8.002;2023-04-15T05:24:27;4.93;;;3.43;;
20423;SDS011;10371;49.042;8.002;2023-04-15T05:25:27;4.77;;;3.50;;
20423;SDS011;10371;49.042;8.002;2023-04-15T05:26:27;3.73;;;3.43;;
20423;SDS011;10371;49.042;8.002;2023-04-15T05:27:28;3.57;;;3.00;;
20423;SDS011;10371;49.042;8.002;2023-04-15T05:28:28;4.00;;;3.60;;
20423;SDS011;10371;49.042;8.002;2023-04-15T05:29:28;3.30;;;3.00;;
20423;SDS011;10371;49.042;8.002;2023-04-15T05:30:29;4.13;;;3.10;;
20423;SDS011;10371;49.042;8.002;2023-04-15T05:31:30;3.30;;;2.87;;
20423;SDS011;10371;49.042;8.002;2023-04-15T05:32:30;3.20;;;2.90;;
20423;SDS011;10371;49.042;8.002;2023-04-15T05:33:30;3.40;;;2.80;;
20423;SDS011;10371;49.042;8.002;2023-04-15T05:34:31;3.93;;;3.07;;
20423;SDS011;10371;49.042;8.002;2023-04-15T05:35:31;3.77;;;3.30;;
20423;SDS011;10371;49.042;8.002;2023-04-15T05:36:31;4.10;;;3.40;;
20423;SDS011;10371;49.042;8.002;2023-04-15T05:37:31;3.60;;;3.30;;
20423;SDS011;10371;49.042;8.002;2023-04-15T05:38:32;4.57;;;4.10;;
20423;SDS011;10371;49.042;8.002;2023-04-15T05:39:32;4.43;;;3.97;;
20423;SDS011;10371;49.042;8.002;2023-04-15T05:40:32;4.63;;;4.00;;
20423;SDS011;10371;49.042;8.002;2023-04-15T05:41:33;5.20;;;4.03;;
20423;SDS011;10371;49.042;8.002;2023-04-15T05:42:33;4.80;;;4.40;;
20423;SDS011;10371;49.042;8.002;2023-04-15T05:43:34;5.33;;;3.93;;
20423;SDS011;10371;49.042;8.002;2023-04-15T05:44:34;4.43;;;3.57;;
20423;SDS011;10371;49.042;8.002;2023-04-15T05:45:35;4.33;;;3.53;;
20423;SDS011;10371;49.042;8.002;2023-04-15T05:46:35;4.13;;;3.83;;
20423;SDS011;10371;49.042;8.002;2023-04-15T05:47:36;4.37;;;3.97;;
20423;SDS011;10371;49.042;8.002;2023-04-15T05:48:36;4.30;;;3.90;;
20423;SDS011;10371;49.042;8.002;2023-04-15T05:49:36;5.17;;;4.10;;
20423;SDS011;10371;49.042;8.002;2023-04-15T05:50:39;4.13;;;3.60;;
20423;SDS011;10371;49.042;8.002;2023-04-15T05:51:40;5.27;;;3.63;;
20423;SDS011;10371;49.042;8.002;2023-04-15T05:52:41;4.10;;;3.63;;
20423;SDS011;10371;49.042;8.002;2023-04-15T05:53:41;3.77;;;3.17;;
20423;SDS011;10371;49.042;8.002;2023-04-15T05:54:41;5.47;;;3.67;;
20423;SDS011;10371;49.042;8.002;2023-04-15T05:55:42;6.53;;;4.40;;
20423;SDS011;10371;49.042;8.002;2023-04-15T05:56:42;5.03;;;4.63;;
20423;SDS011;10371;49.042;8.002;2023-04-15T05:57:42;6.20;;;4.20;;
20423;SDS011;10371;49.042;8.002;2023-04-15T05:58:42;4.60;;;4.20;;
20423;SDS011;10371;49.042;8.002;2023-04-15T05:59:43;4.60;;;4.20;;
20423;SDS011;10371;49.042;8.002;2023-04-15T06:00:43;4.40;;;4.00;;
20423;SDS011;10371;49.042;8.002;2023-04-15T06:01:45;6.20;;;5.60;;
20423;SDS011;10371;49.042;8.002;2023-04-15T06:02:45;6.57;;;5.30;;
20423;SDS011;10371;49.042;8.002;2023-04-15T06:03:46;7.77;;;5.10;;
20423;SDS011;10371;49.042;8.002;2023-04-15T06:04:46;4.33;;;3.93;;
20423;SDS011;10371;49.042;8.002;2023-04-15T06:05:46;4.90;;;3.50;;